Time;durP1;ratioP1;P1;durP2;ratioP2;P2;SDS_P1;SDS_P2;PMS_P1;PMS_P2;Temp;Humidity;BMP_temperature;BMP_pressure;BME280_temperature;BME280_humidity;BME280_pressure;Samples;Min_cycle;Max_cycle;Signal;HPM_P1;HPM_P2
2023/11/19 00:00:12;;;;;;;0.50;0.50;;;;;;;7.71;100.00;99713.88;4955542;28;20256;-83
2023/11/19 00:02:38;;;;;;;2.20;0.50;;;;;;;7.78;100.00;99714.63;4957997;28;20220;-82
2023/11/19 00:05:08;;;;;;;1.60;0.80;;;;;;;7.82;100.00;99680.75;4956780;28;20223;-83
2023/11/19 00:07:36;;;;;;;0.60;0.60;;;;;;;7.83;100.00;99659.09;4948241;28;20260;-81
2023/11/19 00:10:10;;;;;;;0.57;0.57;;;;;;;7.65;100.00;99654.25;4945876;29;20242;-81
2023/11/19 00:12:37;;;;;;;1.43;0.63;;;;;;;7.44;100.00;99632.16;4957618;28;20261;-81
2023/11/19 00:15:04;;;;;;;0.60;0.60;;;;;;;7.82;100.00;99620.16;4957540;28;20209;-81
2023/11/19 00:17:31;;;;;;;0.53;0.53;;;;;;;7.96;100.00;99636.28;4957168;28;20201;-82
2023/11/19 00:19:58;;;;;;;0.50;0.50;;;;;;;7.85;100.00;99643.44;4957455;28;20221;-83
2023/11/19 00:22:25;;;;;;;0.50;0.50;;;;;;;7.98;100.00;99618.94;4956811;28;20218;-81
2023/11/19 00:24:53;;;;;;;0.50;0.50;;;;;;;7.90;100.00;99607.84;4956873;28;20202;-81
2023/11/19 00:27:20;;;;;;;0.50;0.50;;;;;;;7.91;100.00;99623.41;4956732;28;20209;-83
2023/11/19 00:29:46;;;;;;;0.60;0.60;;;;;;;8.01;100.00;99610.19;4956869;28;20255;-81
2023/11/19 00:32:13;;;;;;;0.53;0.53;;;;;;;8.08;100.00;99604.00;4957321;28;20221;-83
2023/11/19 00:34:39;;;;;;;0.50;0.50;;;;;;;8.07;100.00;99612.69;4957409;28;20213;-80
2023/11/19 00:37:06;;;;;;;0.50;0.50;;;;;;;8.13;100.00;99600.41;4956876;28;20231;-82
2023/11/19 00:39:33;;;;;;;0.57;0.57;;;;;;;8.18;100.00;99583.84;4956930;28;20217;-81
2023/11/19 00:42:00;;;;;;;0.73;0.70;;;;;;;8.13;100.00;99581.38;4956626;28;20645;-83
2023/11/19 00:44:27;;;;;;;0.40;0.40;;;;;;;8.31;100.00;99580.94;4956922;28;20208;-81
2023/11/19 00:46:53;;;;;;;0.60;0.60;;;;;;;8.38;100.00;99601.59;4957250;28;20211;-81
2023/11/19 00:49:20;;;;;;;1.17;0.60;;;;;;;8.47;99.31;99606.59;4956990;28;20204;-81
2023/11/19 00:51:46;;;;;;;0.90;0.60;;;;;;;8.39;99.16;99624.97;4956119;28;20217;-83
2023/11/19 00:54:12;;;;;;;1.13;0.60;;;;;;;8.44;99.65;99611.88;4956770;28;20211;-81
2023/11/19 00:56:39;;;;;;;0.60;0.60;;;;;;;8.39;99.90;99609.34;4956767;28;20221;-82
2023/11/19 00:59:07;;;;;;;0.60;0.60;;;;;;;8.41;100.00;99612.81;4956593;28;20224;-81
2023/11/19 01:01:34;;;;;;;0.60;0.60;;;;;;;8.44;100.00;99612.72;4956149;28;20237;-81
2023/11/19 01:04:00;;;;;;;0.40;0.40;;;;;;;8.50;100.00;99604.78;4956677;28;20667;-81
2023/11/19 01:06:31;;;;;;;0.70;0.70;;;;;;;8.50;99.94;99606.50;4956058;28;20209;-82
2023/11/19 01:08:58;;;;;;;1.07;0.50;;;;;;;8.60;99.35;99608.00;4956902;28;20215;-82
2023/11/19 01:11:25;;;;;;;0.60;0.60;;;;;;;8.68;98.38;99600.00;4955974;28;20232;-82
2023/11/19 01:13:53;;;;;;;0.60;0.60;;;;;;;8.78;98.01;99609.31;4955974;28;20219;-81
2023/11/19 01:16:21;;;;;;;0.50;0.50;;;;;;;8.70;98.49;99598.22;4949341;28;20213;-81
2023/11/19 01:18:48;;;;;;;0.73;0.60;;;;;;;8.72;98.82;99593.84;4956236;29;20208;-81
2023/11/19 01:21:14;;;;;;;0.60;0.60;;;;;;;8.57;98.82;99579.47;4955379;28;20255;-83
2023/11/19 01:23:42;;;;;;;0.77;0.77;;;;;;;8.72;98.91;99571.31;4956304;28;20649;-82
2023/11/19 01:26:10;;;;;;;0.60;0.60;;;;;;;8.79;98.89;99576.34;4956335;28;20208;-81
2023/11/19 01:28:36;;;;;;;0.47;0.47;;;;;;;8.78;99.25;99562.50;4955606;28;20216;-80
2023/11/19 01:31:03;;;;;;;0.70;0.70;;;;;;;8.77;99.48;99542.56;4955841;28;20224;-81
2023/11/19 01:33:31;;;;;;;0.53;0.43;;;;;;;8.90;98.88;99548.28;4955776;28;20663;-82
2023/11/19 01:35:58;;;;;;;0.50;0.50;;;;;;;8.77;99.28;99568.56;4952898;28;20209;-81
2023/11/19 01:38:25;;;;;;;0.50;0.50;;;;;;;8.87;99.28;99556.19;4954980;29;20208;-81
2023/11/19 01:40:51;;;;;;;0.70;0.70;;;;;;;8.85;98.92;99560.56;4950373;29;20232;-82
2023/11/19 01:43:33;;;;;;;0.77;0.60;;;;;;;8.83;99.19;99560.59;4956391;28;20234;-83
2023/11/19 01:45:58;;;;;;;0.73;0.70;;;;;;;8.85;99.69;99552.75;4955903;28;20196;-83
2023/11/19 01:48:24;;;;;;;0.47;0.47;;;;;;;8.93;99.19;99545.59;4955850;28;20231;-81
2023/11/19 01:50:53;;;;;;;2.37;0.70;;;;;;;9.02;98.74;99541.88;4948066;29;20216;-83
2023/11/19 01:53:20;;;;;;;0.60;0.60;;;;;;;8.95;98.63;99557.66;4955250;28;20565;-83
2023/11/19 01:55:47;;;;;;;0.60;0.60;;;;;;;8.97;98.59;99538.56;4955671;28;20630;-82
2023/11/19 01:58:14;;;;;;;0.77;0.63;;;;;;;8.82;100.00;99539.81;4955742;28;20287;-82
2023/11/19 02:00:41;;;;;;;0.70;0.70;;;;;;;8.84;100.00;99519.81;4955462;28;20590;-82
2023/11/19 02:03:08;;;;;;;0.57;0.57;;;;;;;8.90;100.00;99499.69;4955786;28;20205;-81
2023/11/19 02:05:36;;;;;;;0.57;0.57;;;;;;;8.99;100.00;99480.34;4955160;28;20232;-81
2023/11/19 02:08:04;;;;;;;0.73;0.50;;;;;;;8.94;100.00;99482.25;4955187;28;20228;-81
2023/11/19 02:10:31;;;;;;;0.50;0.50;;;;;;;9.00;100.00;99463.00;4955497;28;20225;-83
2023/11/19 02:12:58;;;;;;;0.77;0.50;;;;;;;8.89;100.00;99464.16;4955642;28;20229;-83
2023/11/19 02:15:25;;;;;;;0.57;0.57;;;;;;;8.99;100.00;99433.50;4955660;28;20207;-81
2023/11/19 02:17:52;;;;;;;1.60;0.57;;;;;;;8.97;100.00;99429.25;4955670;28;20225;-83
2023/11/19 02:20:20;;;;;;;0.73;0.60;;;;;;;8.94;100.00;99401.56;4955330;28;20224;-83
2023/11/19 02:22:47;;;;;;;0.40;0.40;;;;;;;8.98;100.00;99382.38;4954559;28;20949;-82
2023/11/19 02:25:23;;;;;;;0.60;0.50;;;;;;;9.01;100.00;99365.78;4955478;28;20296;-82
2023/11/19 02:27:56;;;;;;;0.67;0.50;;;;;;;9.10;100.00;99368.13;4954852;28;20255;-81
2023/11/19 02:30:26;;;;;;;0.60;0.60;;;;;;;9.06;100.00;99369.13;4955338;28;20275;-82
2023/11/19 02:32:52;;;;;;;0.60;0.60;;;;;;;9.02;100.00;99359.69;4955113;28;20201;-84
2023/11/19 02:35:19;;;;;;;0.57;0.57;;;;;;;9.07;100.00;99345.63;4955061;28;20208;-81
2023/11/19 02:37:45;;;;;;;1.20;0.50;;;;;;;9.05;100.00;99352.63;4954651;28;20698;-83
2023/11/19 02:40:13;;;;;;;2.13;0.50;;;;;;;9.09;100.00;99337.78;4954782;28;20241;-83
2023/11/19 02:42:39;;;;;;;0.30;0.30;;;;;;;9.01;100.00;99334.56;4954913;28;20420;-82
2023/11/19 02:45:14;;;;;;;0.40;0.40;;;;;;;9.04;100.00;99337.06;4955403;28;20212;-83
2023/11/19 02:47:40;;;;;;;0.40;0.40;;;;;;;9.09;100.00;99340.38;4955350;28;20213;-82
2023/11/19 02:50:13;;;;;;;0.30;0.30;;;;;;;9.17;100.00;99340.16;4954201;28;20209;-82
2023/11/19 02:52:40;;;;;;;0.30;0.30;;;;;;;9.25;100.00;99332.94;4954427;28;20262;-83
2023/11/19 02:55:09;;;;;;;0.40;0.40;;;;;;;9.26;100.00;99311.22;4955661;28;20314;-82
2023/11/19 02:57:36;;;;;;;0.40;0.40;;;;;;;9.26;100.00;99308.63;4954895;28;20237;-83
2023/11/19 03:00:11;;;;;;;1.13;0.30;;;;;;;9.30;100.00;99292.00;4954568;28;20201;-81
2023/11/19 03:02:44;;;;;;;0.40;0.40;;;;;;;9.32;100.00;99291.03;4954868;28;20228;-82
2023/11/19 03:05:11;;;;;;;0.90;0.57;;;;;;;9.28;100.00;99286.00;4954570;28;20626;-81
2023/11/19 03:07:37;;;;;;;0.43;0.40;;;;;;;9.27;100.00;99276.47;4954408;28;20701;-82
2023/11/19 03:10:05;;;;;;;0.40;0.40;;;;;;;9.34;100.00;99259.75;4954787;28;20212;-83
2023/11/19 03:12:32;;;;;;;0.40;0.40;;;;;;;9.34;100.00;99273.63;4954290;28;20236;-84
2023/11/19 03:14:58;;;;;;;0.50;0.50;;;;;;;9.28;100.00;99249.53;4955007;28;20208;-83
2023/11/19 03:17:25;;;;;;;1.50;0.60;;;;;;;9.39;100.00;99237.00;4954844;28;20205;-82
2023/11/19 03:19:52;;;;;;;0.60;0.60;;;;;;;9.42;100.00;99217.84;4954655;28;20629;-83
2023/11/19 03:22:20;;;;;;;0.47;0.47;;;;;;;9.44;100.00;99222.06;4954363;28;20233;-81
2023/11/19 03:24:47;;;;;;;0.50;0.50;;;;;;;9.46;100.00;99224.63;4954822;28;20397;-83
2023/11/19 03:27:13;;;;;;;0.80;0.40;;;;;;;9.43;100.00;99233.38;4954422;28;20211;-82
2023/11/19 03:29:39;;;;;;;0.50;0.50;;;;;;;9.53;100.00;99226.97;4954260;28;20687;-82
2023/11/19 03:32:06;;;;;;;0.60;0.60;;;;;;;9.54;100.00;99228.66;4954575;28;20220;-81
2023/11/19 03:34:33;;;;;;;0.60;0.60;;;;;;;9.59;100.00;99230.25;4954750;28;20201;-82
2023/11/19 03:37:01;;;;;;;0.80;0.67;;;;;;;9.63;100.00;99237.06;4954219;28;20730;-82
2023/11/19 03:39:27;;;;;;;0.90;0.80;;;;;;;9.63;100.00;99235.34;4954306;28;20204;-79
2023/11/19 03:41:53;;;;;;;0.80;0.80;;;;;;;9.71;100.00;99238.53;4953676;28;20235;-83
2023/11/19 03:44:20;;;;;;;0.70;0.70;;;;;;;9.64;100.00;99239.63;4954552;28;20714;-83
2023/11/19 03:46:46;;;;;;;1.27;0.70;;;;;;;9.53;100.00;99244.34;4954523;28;20212;-82
2023/11/19 03:49:13;;;;;;;0.60;0.60;;;;;;;9.65;100.00;99219.63;4954622;28;20201;-81
2023/11/19 03:51:39;;;;;;;0.70;0.70;;;;;;;9.68;100.00;99238.63;4953523;28;20741;-82
2023/11/19 03:54:07;;;;;;;0.90;0.80;;;;;;;9.63;100.00;99231.84;4954663;28;20205;-83
2023/11/19 03:56:34;;;;;;;1.70;0.67;;;;;;;9.73;100.00;99209.78;4954359;28;20264;-83
2023/11/19 03:59:00;;;;;;;0.70;0.70;;;;;;;9.88;100.00;99201.41;4954104;28;20663;-84
2023/11/19 04:01:26;;;;;;;0.60;0.60;;;;;;;9.82;100.00;99201.66;4957078;28;20245;-81
2023/11/19 04:03:53;;;;;;;0.80;0.80;;;;;;;9.85;100.00;99201.56;4957679;28;20208;-84
2023/11/19 04:06:19;;;;;;;0.70;0.70;;;;;;;9.91;100.00;99195.25;4957017;28;20663;-81
2023/11/19 04:08:46;;;;;;;0.80;0.80;;;;;;;10.06;100.00;99210.31;4957474;28;20228;-81
2023/11/19 04:11:13;;;;;;;2.50;1.00;;;;;;;10.01;100.00;99198.38;4957495;28;20643;-83
2023/11/19 04:13:40;;;;;;;0.97;0.87;;;;;;;10.08;100.00;99194.63;4957315;28;20216;-83
2023/11/19 04:16:07;;;;;;;1.20;1.10;;;;;;;10.18;100.00;99193.38;4957534;28;20208;-83
2023/11/19 04:18:33;;;;;;;1.33;1.23;;;;;;;10.12;100.00;99193.63;4957855;28;20220;-82
2023/11/19 04:21:00;;;;;;;1.60;1.50;;;;;;;10.10;100.00;99203.25;4957211;28;20827;-82
2023/11/19 04:23:26;;;;;;;1.53;1.27;;;;;;;10.14;100.00;99194.41;4957573;28;20221;-84
2023/11/19 04:25:53;;;;;;;2.63;1.53;;;;;;;10.26;100.00;99180.91;4957858;28;20252;-82
2023/11/19 04:28:20;;;;;;;3.50;1.60;;;;;;;10.34;100.00;99186.69;4957374;28;20212;-82
2023/11/19 04:30:47;;;;;;;2.00;1.90;;;;;;;10.38;100.00;99186.59;4956764;28;20742;-83
2023/11/19 04:33:13;;;;;;;3.33;2.30;;;;;;;10.49;100.00;99198.31;4957520;28;20208;-83
2023/11/19 04:35:39;;;;;;;5.33;2.50;;;;;;;10.57;100.00;99200.63;4956902;28;20209;-83
2023/11/19 04:38:06;;;;;;;3.00;2.27;;;;;;;10.64;100.00;99196.84;4956677;28;20585;-84
2023/11/19 04:40:33;;;;;;;3.40;3.10;;;;;;;10.70;100.00;99219.25;4957418;28;20221;-82
2023/11/19 04:42:59;;;;;;;3.93;2.97;;;;;;;10.69;100.00;99207.97;4941477;29;20222;-82
2023/11/19 04:45:27;;;;;;;3.17;2.87;;;;;;;10.73;100.00;99216.53;4956952;28;20210;-82
2023/11/19 04:47:53;;;;;;;3.23;2.93;;;;;;;10.83;100.00;99227.47;4957291;28;20209;-82
2023/11/19 04:50:19;;;;;;;3.30;3.00;;;;;;;10.83;100.00;99228.31;4956805;28;20231;-82
2023/11/19 04:52:46;;;;;;;7.07;2.57;;;;;;;10.76;100.00;99229.47;4948603;28;20205;-83
2023/11/19 04:55:14;;;;;;;2.60;2.40;;;;;;;10.82;100.00;99229.25;4957083;28;20204;-82
2023/11/19 04:57:40;;;;;;;3.07;2.57;;;;;;;10.78;100.00;99245.91;4956549;28;20628;-83
2023/11/19 05:00:08;;;;;;;4.20;2.03;;;;;;;10.86;100.00;99248.22;4956749;28;20612;-83
2023/11/19 05:02:36;;;;;;;5.60;2.90;;;;;;;10.77;100.00;99246.00;4956492;28;20235;-82
2023/11/19 05:05:03;;;;;;;4.57;2.33;;;;;;;10.84;100.00;99242.22;4956362;28;20208;-84
2023/11/19 05:07:30;;;;;;;3.70;2.97;;;;;;;10.66;100.00;99234.22;4956267;28;20205;-82
2023/11/19 05:09:56;;;;;;;2.70;2.33;;;;;;;10.85;100.00;99225.66;4956506;28;20216;-81
2023/11/19 05:12:23;;;;;;;3.10;2.53;;;;;;;10.84;100.00;99242.22;4955553;28;20205;-83
2023/11/19 05:14:50;;;;;;;2.87;2.67;;;;;;;10.90;100.00;99237.63;4956129;28;20216;-84
2023/11/19 05:17:17;;;;;;;3.00;2.40;;;;;;;10.78;100.00;99248.53;4956514;28;20205;-83
2023/11/19 05:19:45;;;;;;;2.40;2.20;;;;;;;10.79;100.00;99234.56;4956007;28;20264;-83
2023/11/19 05:22:12;;;;;;;4.03;2.60;;;;;;;10.67;100.00;99216.78;4956047;28;20225;-81
2023/11/19 05:24:39;;;;;;;2.53;2.33;;;;;;;10.92;100.00;99222.75;4956550;28;20221;-81
2023/11/19 05:27:06;;;;;;;2.30;2.20;;;;;;;10.91;100.00;99220.19;4956256;28;20205;-83
2023/11/19 05:29:33;;;;;;;2.67;2.47;;;;;;;10.86;100.00;99204.72;4956394;28;20216;-80
2023/11/19 05:31:59;;;;;;;2.80;2.20;;;;;;;10.89;100.00;99219.41;4955973;28;20235;-83
2023/11/19 05:34:26;;;;;;;2.77;2.50;;;;;;;10.98;100.00;99212.94;4956245;28;20205;-83
2023/11/19 05:36:54;;;;;;;2.57;2.10;;;;;;;11.08;100.00;99215.13;4955658;28;20209;-84
2023/11/19 05:39:20;;;;;;;2.47;2.13;;;;;;;11.18;100.00;99222.56;4956276;28;20209;-83
2023/11/19 05:41:47;;;;;;;3.03;2.50;;;;;;;11.20;100.00;99245.13;4954930;28;20279;-82
2023/11/19 05:44:13;;;;;;;4.00;2.83;;;;;;;11.31;100.00;99252.50;4956089;28;20216;-83
2023/11/19 05:46:42;;;;;;;4.57;2.57;;;;;;;11.35;100.00;99261.94;4955924;28;20240;-81
2023/11/19 05:49:08;;;;;;;3.77;2.83;;;;;;;11.37;100.00;99265.31;4956295;28;20209;-81
2023/11/19 05:51:38;;;;;;;4.40;2.80;;;;;;;11.45;100.00;99272.84;4955665;28;20221;-82
2023/11/19 05:54:07;;;;;;;5.70;2.97;;;;;;;11.43;100.00;99272.06;4955946;28;20204;-84
2023/11/19 05:56:34;;;;;;;3.87;3.00;;;;;;;11.19;100.00;99266.94;4955862;28;20213;-82
2023/11/19 05:59:01;;;;;;;4.43;3.60;;;;;;;11.28;100.00;99247.44;4955844;28;20205;-82
2023/11/19 06:01:27;;;;;;;2.70;2.50;;;;;;;11.41;100.00;99234.69;4949944;28;20225;-81
2023/11/19 06:03:54;;;;;;;3.60;3.30;;;;;;;11.49;100.00;99223.00;4955638;28;20228;-84
2023/11/19 06:06:21;;;;;;;6.77;2.90;;;;;;;11.51;100.00;99242.06;4955149;28;20200;-83
2023/11/19 06:08:50;;;;;;;4.17;3.30;;;;;;;11.46;100.00;99248.44;4955770;28;20219;-81
2023/11/19 06:11:20;;;;;;;5.60;3.37;;;;;;;11.48;100.00;99247.44;4955504;28;20229;-82
2023/11/19 06:13:47;;;;;;;9.07;3.90;;;;;;;11.46;100.00;99251.88;4954359;28;20236;-83
2023/11/19 06:16:14;;;;;;;5.13;4.53;;;;;;;11.38;100.00;99233.06;4950031;29;20201;-82
2023/11/19 06:18:41;;;;;;;8.53;4.77;;;;;;;11.51;100.00;99234.22;4948522;28;20217;-82
2023/11/19 06:21:07;;;;;;;9.60;5.30;;;;;;;11.44;100.00;99245.03;4954386;28;20279;-81
2023/11/19 06:23:34;;;;;;;10.63;6.70;;;;;;;11.59;100.00;99236.53;4948100;28;20241;-81
2023/11/19 06:26:01;;;;;;;8.63;6.00;;;;;;;11.60;100.00;99235.63;4955445;29;20667;-81
2023/11/19 06:28:29;;;;;;;12.60;7.47;;;;;;;11.71;100.00;99251.72;4956335;28;20650;-80
2023/11/19 06:30:57;;;;;;;12.43;8.37;;;;;;;11.94;100.00;99259.50;4955437;28;20423;-83
2023/11/19 06:33:23;;;;;;;12.77;8.83;;;;;;;11.83;100.00;99286.94;4956165;28;20576;-85
2023/11/19 06:35:50;;;;;;;15.30;6.83;;;;;;;11.89;100.00;99291.94;4947757;28;20217;-81
2023/11/19 06:38:16;;;;;;;10.87;7.97;;;;;;;11.96;100.00;99304.75;4955526;28;20204;-82
2023/11/19 06:40:43;;;;;;;13.40;6.97;;;;;;;12.05;100.00;99328.75;4955424;28;20789;-84
2023/11/19 06:43:12;;;;;;;10.30;7.00;;;;;;;12.07;100.00;99360.03;4955506;28;20228;-83
2023/11/19 06:45:39;;;;;;;12.90;6.17;;;;;;;12.05;100.00;99359.25;4955683;28;20211;-83
2023/11/19 06:48:07;;;;;;;14.93;4.97;;;;;;;12.11;100.00;99374.72;4955778;28;20209;-84
2023/11/19 06:50:33;;;;;;;12.10;4.27;;;;;;;12.02;100.00;99388.19;4948415;28;20237;-81
2023/11/19 06:53:00;;;;;;;14.07;5.67;;;;;;;12.15;100.00;99391.13;4954978;29;20620;-80
2023/11/19 06:55:27;;;;;;;9.73;5.80;;;;;;;12.21;100.00;99393.47;4955714;28;20742;-83
2023/11/19 06:57:53;;;;;;;10.77;5.20;;;;;;;12.19;100.00;99408.38;4955727;28;20211;-83
2023/11/19 07:00:20;;;;;;;10.43;4.77;;;;;;;12.08;99.21;99429.78;4955558;28;20577;-85
2023/11/19 07:02:48;;;;;;;12.10;5.63;;;;;;;12.16;99.15;99442.53;4948091;29;20288;-81
2023/11/19 07:05:14;;;;;;;10.80;5.50;;;;;;;12.27;98.34;99469.97;4955950;28;20559;-82
2023/11/19 07:07:41;;;;;;;12.17;5.30;;;;;;;12.38;97.29;99484.34;4955205;28;20231;-82
2023/11/19 07:10:09;;;;;;;11.30;4.50;;;;;;;12.28;97.22;99492.56;4955548;28;20237;-83
2023/11/19 07:12:36;;;;;;;7.30;4.30;;;;;;;12.17;97.43;99502.66;4955604;28;20675;-84
2023/11/19 07:15:03;;;;;;;8.83;4.50;;;;;;;12.38;97.91;99502.69;4955768;28;20231;-82
2023/11/19 07:17:29;;;;;;;9.90;5.37;;;;;;;12.20;97.72;99499.06;4949221;28;20244;-82
2023/11/19 07:19:59;;;;;;;9.70;4.57;;;;;;;12.28;97.99;99502.19;4935892;29;20419;-82
2023/11/19 07:22:25;;;;;;;15.80;5.43;;;;;;;12.29;97.84;99489.06;4941816;29;20232;-82
2023/11/19 07:24:53;;;;;;;11.80;5.60;;;;;;;12.23;97.83;99484.09;4947532;28;20221;-82
2023/11/19 07:27:19;;;;;;;17.37;6.20;;;;;;;12.13;96.83;99503.69;4950636;28;20751;-81
2023/11/19 07:29:46;;;;;;;10.33;6.13;;;;;;;12.28;96.04;99513.50;4945423;29;20217;-81
2023/11/19 07:32:13;;;;;;;11.43;5.73;;;;;;;12.29;95.40;99530.94;4955368;28;20771;-82
2023/11/19 07:34:39;;;;;;;11.77;6.50;;;;;;;12.28;95.87;99550.13;4956095;28;20240;-83
2023/11/19 07:37:07;;;;;;;13.03;4.80;;;;;;;12.10;95.61;99551.72;4943352;29;20204;-83
2023/11/19 07:39:35;;;;;;;15.10;5.03;;;;;;;12.21;95.84;99560.91;4956369;28;20784;-82
2023/11/19 07:42:01;;;;;;;13.40;5.30;;;;;;;12.19;96.28;99555.75;4958638;28;20714;-83
2023/11/19 07:44:28;;;;;;;10.93;5.63;;;;;;;12.23;95.00;99562.56;4951055;28;20225;-83
2023/11/19 07:46:54;;;;;;;10.23;5.93;;;;;;;12.18;94.45;99580.22;4959377;28;20216;-81
2023/11/19 07:49:20;;;;;;;12.27;5.30;;;;;;;12.47;94.32;99580.81;4958751;28;20264;-84
2023/11/19 07:51:47;;;;;;;11.80;6.57;;;;;;;12.35;93.26;99605.72;4958533;28;20229;-81
2023/11/19 07:54:15;;;;;;;12.30;4.47;;;;;;;12.30;92.37;99623.34;4950948;28;20213;-81
2023/11/19 07:56:43;;;;;;;9.70;5.47;;;;;;;12.37;92.15;99632.69;4950542;28;20217;-85
2023/11/19 07:59:10;;;;;;;8.27;4.67;;;;;;;12.44;91.63;99641.13;4958448;29;20596;-83
2023/11/19 08:01:36;;;;;;;13.60;5.50;;;;;;;12.29;92.22;99640.84;4958521;28;20224;-81
2023/11/19 08:04:03;;;;;;;13.97;6.37;;;;;;;12.40;92.77;99634.31;4958425;28;20317;-80
2023/11/19 08:06:29;;;;;;;15.50;6.37;;;;;;;12.47;92.00;99646.25;4958205;28;20212;-82
2023/11/19 08:08:56;;;;;;;14.63;5.47;;;;;;;12.18;90.76;99671.78;4950665;28;20219;-82
2023/11/19 08:11:24;;;;;;;11.87;4.80;;;;;;;12.36;90.94;99680.69;4958167;28;20588;-82
2023/11/19 08:13:50;;;;;;;16.50;6.33;;;;;;;12.33;90.25;99688.69;4956722;28;20209;-80
2023/11/19 08:16:16;;;;;;;15.07;5.13;;;;;;;12.35;89.48;99691.22;4951607;29;20215;-81
2023/11/19 08:18:44;;;;;;;9.63;5.03;;;;;;;12.36;89.87;99696.41;4957777;28;20217;-83
2023/11/19 08:21:10;;;;;;;17.13;6.07;;;;;;;12.54;89.23;99691.38;4942105;29;20284;-81
2023/11/19 08:23:37;;;;;;;11.33;5.17;;;;;;;12.50;89.30;99716.81;4958003;28;20224;-81
2023/11/19 08:26:04;;;;;;;14.67;5.40;;;;;;;12.58;89.43;99729.59;4958016;28;20681;-84
2023/11/19 08:28:34;;;;;;;11.23;6.20;;;;;;;12.24;89.22;99744.81;4951569;28;20300;-82
2023/11/19 08:31:00;;;;;;;11.87;5.53;;;;;;;12.47;89.79;99722.19;4956549;29;20244;-80
2023/11/19 08:33:27;;;;;;;15.53;4.73;;;;;;;12.50;88.91;99742.97;4950043;28;20205;-82
2023/11/19 08:35:54;;;;;;;14.23;4.47;;;;;;;12.44;88.85;99748.44;4949722;28;20672;-83
2023/11/19 08:38:20;;;;;;;17.23;4.87;;;;;;;12.08;88.79;99751.53;4958110;28;20208;-83
2023/11/19 08:40:46;;;;;;;13.57;5.03;;;;;;;12.21;88.13;99758.03;4957479;28;20231;-82
2023/11/19 08:43:13;;;;;;;13.27;4.30;;;;;;;12.06;88.25;99759.41;4957234;28;20572;-84
2023/11/19 08:45:41;;;;;;;12.07;4.60;;;;;;;12.12;89.21;99753.13;4956955;28;20248;-82
2023/11/19 08:48:07;;;;;;;15.30;4.10;;;;;;;12.24;89.40;99733.50;4948761;28;20209;-81
2023/11/19 08:50:34;;;;;;;19.07;5.47;;;;;;;12.30;88.98;99743.72;4957713;28;20279;-82
2023/11/19 08:53:01;;;;;;;15.80;5.40;;;;;;;12.34;88.81;99737.47;4956991;28;20232;-85
2023/11/19 08:55:27;;;;;;;12.43;4.50;;;;;;;12.28;88.87;99749.03;4949600;28;20303;-83
2023/11/19 08:57:54;;;;;;;17.93;6.67;;;;;;;12.38;88.36;99752.16;4957063;28;20209;-85
2023/11/19 09:00:21;;;;;;;16.10;5.33;;;;;;;12.36;89.29;99753.13;4951676;28;20229;-82
2023/11/19 09:02:48;;;;;;;16.63;5.30;;;;;;;12.44;89.82;99736.22;4955460;29;20205;-80
2023/11/19 09:05:15;;;;;;;15.63;5.33;;;;;;;12.27;90.40;99734.25;4958230;28;20209;-81
2023/11/19 09:07:41;;;;;;;17.20;5.00;;;;;;;12.15;90.76;99707.66;4948955;28;20684;-83
2023/11/19 09:10:08;;;;;;;16.63;5.13;;;;;;;12.23;91.52;99693.41;4956906;28;20205;-82
2023/11/19 09:12:35;;;;;;;16.90;5.73;;;;;;;12.20;90.57;99690.88;4957182;28;20237;-80
2023/11/19 09:15:02;;;;;;;13.17;4.13;;;;;;;12.27;90.02;99694.16;4957412;28;20205;-80
2023/11/19 09:17:28;;;;;;;20.77;5.53;;;;;;;12.28;90.05;99708.91;4957219;28;20558;-82
2023/11/19 09:19:56;;;;;;;15.13;5.13;;;;;;;12.27;90.38;99712.47;4957297;28;20208;-82
2023/11/19 09:22:23;;;;;;;19.70;4.67;;;;;;;12.18;89.69;99738.97;4951796;28;20217;-82
2023/11/19 09:24:50;;;;;;;18.40;5.40;;;;;;;12.21;89.89;99720.50;4951408;29;20229;-84
2023/11/19 09:27:16;;;;;;;22.43;7.67;;;;;;;12.37;89.61;99732.13;4950568;28;20216;-85
2023/11/19 09:29:45;;;;;;;22.00;6.27;;;;;;;12.22;89.22;99746.63;4949809;28;20675;-87
2023/11/19 09:32:12;;;;;;;18.07;5.90;;;;;;;12.01;88.67;99773.56;4957879;28;20719;-82
2023/11/19 09:34:39;;;;;;;20.57;4.90;;;;;;;12.10;88.25;99768.88;4957104;28;20209;-84
2023/11/19 09:37:07;;;;;;;11.70;4.47;;;;;;;12.20;88.95;99769.38;4955991;28;20660;-88
2023/11/19 09:39:34;;;;;;;23.83;4.40;;;;;;;12.19;88.69;99766.81;4956684;28;20205;-84
2023/11/19 09:42:00;;;;;;;18.50;5.43;;;;;;;12.12;89.00;99755.72;4956348;28;20240;-83
2023/11/19 09:44:27;;;;;;;13.47;4.17;;;;;;;12.05;88.83;99765.56;4956772;28;20288;-81
2023/11/19 09:46:54;;;;;;;27.57;4.70;;;;;;;12.17;89.59;99759.06;4957392;28;20209;-86
2023/11/19 09:49:24;;;;;;;21.83;5.10;;;;;;;12.16;88.94;99765.19;4957397;28;20562;-84
2023/11/19 09:51:51;;;;;;;16.73;5.33;;;;;;;12.02;89.32;99760.44;4956555;28;20229;-85
2023/11/19 09:54:19;;;;;;;21.43;6.30;;;;;;;12.38;89.03;99748.69;4957317;29;20211;-85
2023/11/19 09:56:46;;;;;;;13.27;4.93;;;;;;;12.09;88.03;99777.63;4957383;28;20212;-84
2023/11/19 09:59:12;;;;;;;17.47;4.93;;;;;;;12.46;88.34;99770.19;4956579;28;20216;-86
2023/11/19 10:01:39;;;;;;;16.27;6.07;;;;;;;12.34;88.16;99776.72;4956917;28;20617;-79
2023/11/19 10:04:07;;;;;;;20.10;5.30;;;;;;;12.34;87.37;99788.97;4957764;28;20225;-82
2023/11/19 10:06:33;;;;;;;18.40;6.57;;;;;;;12.34;87.29;99800.28;4956205;28;20554;-82
2023/11/19 10:09:00;;;;;;;22.30;5.67;;;;;;;12.44;86.71;99803.41;4956535;28;20208;-84
2023/11/19 10:11:28;;;;;;;14.77;5.90;;;;;;;12.50;87.21;99805.81;4956012;28;20233;-84
2023/11/19 10:13:55;;;;;;;21.97;4.53;;;;;;;12.44;86.36;99812.13;4956456;28;20702;-84
2023/11/19 10:16:21;;;;;;;14.43;4.37;;;;;;;12.61;85.35;99835.06;4956180;28;20667;-83
2023/11/19 10:18:50;;;;;;;19.43;4.90;;;;;;;12.44;85.72;99840.91;4956460;28;20206;-84
2023/11/19 10:21:18;;;;;;;21.03;5.10;;;;;;;12.66;85.63;99850.59;4956897;28;20673;-82
2023/11/19 10:23:53;;;;;;;14.87;4.80;;;;;;;12.56;85.61;99857.09;4956245;28;20237;-83
2023/11/19 10:26:21;;;;;;;20.90;5.20;;;;;;;12.61;84.79;99868.25;4956765;28;20303;-86
2023/11/19 10:28:49;;;;;;;10.73;4.50;;;;;;;12.22;84.87;99901.00;4958817;28;20216;-88
2023/11/19 10:31:17;;;;;;;15.63;4.60;;;;;;;12.40;85.96;99873.34;4955988;28;20224;-84
2023/11/19 10:33:44;;;;;;;24.47;5.53;;;;;;;12.29;86.36;99850.19;4955766;28;20240;-82
2023/11/19 10:36:12;;;;;;;9.10;3.60;;;;;;;12.02;87.38;99845.91;4955101;28;20220;-82
2023/11/19 10:38:39;;;;;;;18.30;4.60;;;;;;;12.08;88.60;99807.31;4956177;28;20201;-78
2023/11/19 10:41:06;;;;;;;12.47;4.23;;;;;;;12.13;88.68;99783.63;4957134;28;20252;-80
2023/11/19 10:43:32;;;;;;;14.63;3.87;;;;;;;12.05;89.21;99765.56;4957199;28;20228;-79
2023/11/19 10:46:12;;;;;;;16.10;4.97;;;;;;;11.88;89.96;99760.06;4956843;28;20204;-80
2023/11/19 10:48:39;;;;;;;14.07;4.70;;;;;;;12.02;90.52;99742.13;4957418;28;20204;-82
2023/11/19 10:51:08;;;;;;;18.13;4.50;;;;;;;11.96;91.36;99729.28;4956934;28;20719;-81
2023/11/19 10:53:37;;;;;;;12.80;4.97;;;;;;;12.07;91.98;99687.91;4957286;28;20738;-79
2023/11/19 10:56:08;;;;;;;16.13;6.43;;;;;;;12.11;92.09;99692.09;4957804;28;20213;-82
2023/11/19 10:58:37;;;;;;;15.67;5.13;;;;;;;12.09;92.38;99673.00;4953201;28;20687;-81
2023/11/19 11:01:10;;;;;;;13.33;4.77;;;;;;;12.04;91.02;99684.53;4967072;28;20714;-80
2023/11/19 11:03:41;;;;;;;15.03;4.93;;;;;;;12.21;90.15;99697.84;4958280;28;20620;-82
2023/11/19 11:06:09;;;;;;;18.03;6.33;;;;;;;12.19;89.28;99715.38;4956466;29;20240;-82
2023/11/19 11:08:37;;;;;;;14.80;5.57;;;;;;;12.20;89.31;99726.69;4956851;29;20625;-82
2023/11/19 11:11:06;;;;;;;18.43;4.97;;;;;;;12.21;90.02;99724.00;4955476;28;20228;-82
2023/11/19 11:13:33;;;;;;;20.07;6.30;;;;;;;12.37;89.67;99719.06;4955380;28;20255;-81
2023/11/19 11:16:00;;;;;;;21.97;7.57;;;;;;;12.34;90.41;99720.94;4956525;28;20209;-82
2023/11/19 11:18:27;;;;;;;15.50;5.57;;;;;;;12.32;89.22;99728.81;4957773;29;20212;-83
2023/11/19 11:21:01;;;;;;;17.03;5.70;;;;;;;12.46;89.18;99739.63;4958061;29;20707;-83
2023/11/19 11:23:54;;;;;;;21.07;6.27;;;;;;;12.39;88.16;99755.59;4959682;29;20224;-84
2023/11/19 11:27:00;;;;;;;18.03;5.10;;;;;;;12.69;86.66;99772.78;4957004;29;20209;-81
2023/11/19 11:29:36;;;;;;;23.70;5.17;;;;;;;12.65;86.06;99807.84;4955353;29;20208;-82